sensor_id;sensor_type;location;lat;lon;timestamp;pressure;altitude;pressure_sealevel;temperature;humidity
41222;BME280;26952;42.884;23.918;2022-09-06T00:01:19;96516.91;;;13.44;100.00
41222;BME280;26952;42.884;23.918;2022-09-06T00:03:47;96523.56;;;13.48;100.00
41222;BME280;26952;42.884;23.918;2022-09-06T00:06:15;96509.09;;;13.43;100.00
41222;BME280;26952;42.884;23.918;2022-09-06T00:08:42;96513.09;;;13.47;100.00
41222;BME280;26952;42.884;23.918;2022-09-06T00:11:08;96508.47;;;13.33;100.00
41222;BME280;26952;42.884;23.918;2022-09-06T00:13:34;96519.13;;;13.33;100.00
41222;BME280;26952;42.884;23.918;2022-09-06T00:16:07;96527.72;;;13.43;100.00
41222;BME280;26952;42.884;23.918;2022-09-06T00:18:33;96517.16;;;13.27;100.00
41222;BME280;26952;42.884;23.918;2022-09-06T00:20:59;96522.66;;;13.25;100.00
41222;BME280;26952;42.884;23.918;2022-09-06T00:23:24;96528.94;;;13.32;100.00
41222;BME280;26952;42.884;23.918;2022-09-06T00:25:49;96522.88;;;13.16;100.00
41222;BME280;26952;42.884;23.918;2022-09-06T00:28:15;96505.09;;;13.08;100.00
41222;BME280;26952;42.884;23.918;2022-09-06T00:30:41;96533.47;;;13.24;100.00
41222;BME280;26952;42.884;23.918;2022-09-06T00:33:06;96491.19;;;12.90;100.00
41222;BME280;26952;42.884;23.918;2022-09-06T00:35:31;96525.19;;;13.11;100.00
41222;BME280;26952;42.884;23.918;2022-09-06T00:37:58;96518.56;;;13.07;100.00
41222;BME280;26952;42.884;23.918;2022-09-06T00:40:26;96526.88;;;13.04;100.00
41222;BME280;26952;42.884;23.918;2022-09-06T00:42:54;96528.38;;;13.06;100.00
41222;BME280;26952;42.884;23.918;2022-09-06T00:45:20;96528.19;;;13.00;100.00
41222;BME280;26952;42.884;23.918;2022-09-06T00:47:46;96506.31;;;12.90;100.00
41222;BME280;26952;42.884;23.918;2022-09-06T00:50:12;96485.09;;;12.74;100.00
41222;BME280;26952;42.884;23.918;2022-09-06T00:52:40;96514.59;;;12.95;100.00
41222;BME280;26952;42.884;23.918;2022-09-06T00:55:07;96516.75;;;12.91;100.00
41222;BME280;26952;42.884;23.918;2022-09-06T00:57:33;96492.41;;;12.72;100.00
41222;BME280;26952;42.884;23.918;2022-09-06T00:59:59;96501.03;;;12.74;100.00
41222;BME280;26952;42.884;23.918;2022-09-06T01:02:26;96503.66;;;12.82;100.00
41222;BME280;26952;42.884;23.918;2022-09-06T01:04:52;96512.31;;;12.84;100.00
41222;BME280;26952;42.884;23.918;2022-09-06T01:15:56;96519.09;;;12.86;100.00
41222;BME280;26952;42.884;23.918;2022-09-06T01:21:34;96522.94;;;12.84;100.00
41222;BME280;26952;42.884;23.918;2022-09-06T01:32:48;96520.28;;;12.76;100.00
41222;BME280;26952;42.884;23.918;2022-09-06T01:38:02;96511.31;;;12.77;100.00
41222;BME280;26952;42.884;23.918;2022-09-06T01:40:28;96489.09;;;12.62;100.00
41222;BME280;26952;42.884;23.918;2022-09-06T01:42:54;96503.38;;;12.69;100.00
41222;BME280;26952;42.884;23.918;2022-09-06T01:45:29;96449.97;;;12.39;100.00
41222;BME280;26952;42.884;23.918;2022-09-06T01:50:55;96490.59;;;12.72;100.00
41222;BME280;26952;42.884;23.918;2022-09-06T01:53:38;96480.78;;;12.65;100.00
41222;BME280;26952;42.884;23.918;2022-09-06T02:01:36;96470.50;;;12.62;100.00
41222;BME280;26952;42.884;23.918;2022-09-06T02:04:12;96475.16;;;12.68;100.00
41222;BME280;26952;42.884;23.918;2022-09-06T02:06:47;96469.00;;;12.67;100.00
41222;BME280;26952;42.884;23.918;2022-09-06T02:09:18;96469.50;;;12.71;100.00
41222;BME280;26952;42.884;23.918;2022-09-06T02:11:52;96472.16;;;12.71;100.00
41222;BME280;26952;42.884;23.918;2022-09-06T02:14:24;96471.16;;;12.72;100.00
41222;BME280;26952;42.884;23.918;2022-09-06T02:16:52;96456.56;;;12.59;100.00
41222;BME280;26952;42.884;23.918;2022-09-06T02:19:51;96478.09;;;12.73;100.00
41222;BME280;26952;42.884;23.918;2022-09-06T02:22:21;96455.09;;;12.57;100.00
41222;BME280;26952;42.884;23.918;2022-09-06T02:24:48;96443.00;;;12.54;100.00
41222;BME280;26952;42.884;23.918;2022-09-06T02:27:15;96459.22;;;12.51;100.00
41222;BME280;26952;42.884;23.918;2022-09-06T02:29:41;96454.06;;;12.58;100.00
41222;BME280;26952;42.884;23.918;2022-09-06T02:32:11;96459.88;;;12.62;100.00
41222;BME280;26952;42.884;23.918;2022-09-06T02:34:39;96463.19;;;12.64;100.00
41222;BME280;26952;42.884;23.918;2022-09-06T02:37:06;96464.53;;;12.59;100.00
41222;BME280;26952;42.884;23.918;2022-09-06T02:39:32;96465.19;;;12.62;100.00
41222;BME280;26952;42.884;23.918;2022-09-06T02:41:57;96471.00;;;12.65;100.00
41222;BME280;26952;42.884;23.918;2022-09-06T02:44:23;96473.16;;;12.62;100.00
41222;BME280;26952;42.884;23.918;2022-09-06T02:46:48;96460.25;;;12.50;100.00
41222;BME280;26952;42.884;23.918;2022-09-06T02:49:14;96457.28;;;12.37;100.00
41222;BME280;26952;42.884;23.918;2022-09-06T02:51:39;96458.31;;;12.28;100.00
41222;BME280;26952;42.884;23.918;2022-09-06T02:54:05;96452.69;;;12.15;100.00
41222;BME280;26952;42.884;23.918;2022-09-06T02:56:31;96476.22;;;12.26;100.00
41222;BME280;26952;42.884;23.918;2022-09-06T02:58:58;96470.75;;;12.20;100.00
41222;BME280;26952;42.884;23.918;2022-09-06T03:01:24;96475.22;;;12.19;100.00
41222;BME280;26952;42.884;23.918;2022-09-06T03:03:49;96470.59;;;12.13;100.00
41222;BME280;26952;42.884;23.918;2022-09-06T03:06:15;96470.25;;;12.00;100.00
41222;BME280;26952;42.884;23.918;2022-09-06T03:08:40;96484.53;;;12.07;100.00
41222;BME280;26952;42.884;23.918;2022-09-06T03:11:05;96483.53;;;12.08;100.00
41222;BME280;26952;42.884;23.918;2022-09-06T03:13:31;96475.22;;;12.03;100.00
41222;BME280;26952;42.884;23.918;2022-09-06T03:15:58;96476.75;;;12.06;100.00
41222;BME280;26952;42.884;23.918;2022-09-06T03:18:25;96475.56;;;12.00;100.00
41222;BME280;26952;42.884;23.918;2022-09-06T03:20:52;96466.94;;;11.98;100.00
41222;BME280;26952;42.884;23.918;2022-09-06T03:23:18;96473.25;;;12.05;100.00
41222;BME280;26952;42.884;23.918;2022-09-06T03:25:44;96481.19;;;12.05;100.00
41222;BME280;26952;42.884;23.918;2022-09-06T03:28:10;96482.03;;;11.98;100.00
41222;BME280;26952;42.884;23.918;2022-09-06T03:30:35;96476.88;;;11.96;100.00
41222;BME280;26952;42.884;23.918;2022-09-06T03:33:01;96479.88;;;11.93;100.00
41222;BME280;26952;42.884;23.918;2022-09-06T03:35:26;96494.31;;;11.91;100.00
41222;BME280;26952;42.884;23.918;2022-09-06T03:37:51;96476.69;;;11.82;100.00
41222;BME280;26952;42.884;23.918;2022-09-06T03:40:17;96440.03;;;11.61;100.00
41222;BME280;26952;42.884;23.918;2022-09-06T03:42:42;96483.19;;;11.79;100.00
41222;BME280;26952;42.884;23.918;2022-09-06T03:45:08;96484.53;;;11.83;100.00
41222;BME280;26952;42.884;23.918;2022-09-06T03:47:34;96482.50;;;11.85;100.00
41222;BME280;26952;42.884;23.918;2022-09-06T03:49:59;96492.31;;;11.93;100.00
41222;BME280;26952;42.884;23.918;2022-09-06T03:52:25;96479.84;;;11.69;100.00
41222;BME280;26952;42.884;23.918;2022-09-06T03:54:50;96505.06;;;11.73;100.00
41222;BME280;26952;42.884;23.918;2022-09-06T03:57:15;96492.44;;;11.67;100.00
41222;BME280;26952;42.884;23.918;2022-09-06T03:59:41;96496.59;;;11.70;100.00
41222;BME280;26952;42.884;23.918;2022-09-06T04:02:06;96483.84;;;11.65;100.00
41222;BME280;26952;42.884;23.918;2022-09-06T04:04:32;96482.81;;;11.66;100.00
41222;BME280;26952;42.884;23.918;2022-09-06T04:06:57;96509.38;;;11.82;100.00
41222;BME280;26952;42.884;23.918;2022-09-06T04:09:22;96499.94;;;11.80;100.00
41222;BME280;26952;42.884;23.918;2022-09-06T04:11:48;96520.00;;;11.90;100.00
41222;BME280;26952;42.884;23.918;2022-09-06T04:14:13;96519.66;;;11.85;100.00
41222;BME280;26952;42.884;23.918;2022-09-06T04:16:39;96507.06;;;11.87;100.00
41222;BME280;26952;42.884;23.918;2022-09-06T04:19:04;96500.28;;;11.93;100.00
41222;BME280;26952;42.884;23.918;2022-09-06T04:21:30;96492.16;;;11.94;100.00
41222;BME280;26952;42.884;23.918;2022-09-06T04:23:55;96503.91;;;12.08;100.00
41222;BME280;26952;42.884;23.918;2022-09-06T04:26:21;96500.13;;;12.10;100.00
41222;BME280;26952;42.884;23.918;2022-09-06T04:28:46;96490.81;;;12.06;100.00
41222;BME280;26952;42.884;23.918;2022-09-06T04:31:12;96515.19;;;12.26;100.00
41222;BME280;26952;42.884;23.918;2022-09-06T04:33:38;96495.81;;;12.25;100.00
41222;BME280;26952;42.884;23.918;2022-09-06T04:36:07;96506.88;;;12.37;100.00
41222;BME280;26952;42.884;23.918;2022-09-06T04:38:41;96501.28;;;12.40;100.00
41222;BME280;26952;42.884;23.918;2022-09-06T04:41:08;96502.72;;;12.58;100.00
41222;BME280;26952;42.884;23.918;2022-09-06T04:43:34;96511.31;;;12.77;100.00
41222;BME280;26952;42.884;23.918;2022-09-06T04:46:14;96498.00;;;12.85;100.00
41222;BME280;26952;42.884;23.918;2022-09-06T04:48:40;96485.22;;;12.88;100.00
41222;BME280;26952;42.884;23.918;2022-09-06T04:51:06;96502.97;;;13.04;100.00
41222;BME280;26952;42.884;23.918;2022-09-06T04:53:31;96493.66;;;13.08;100.00
41222;BME280;26952;42.884;23.918;2022-09-06T04:55:57;96480.38;;;13.08;100.00
41222;BME280;26952;42.884;23.918;2022-09-06T04:58:23;96505.66;;;13.34;100.00
41222;BME280;26952;42.884;23.918;2022-09-06T05:00:49;96482.59;;;13.27;100.00
41222;BME280;26952;42.884;23.918;2022-09-06T05:03:15;96490.53;;;13.35;100.00
41222;BME280;26952;42.884;23.918;2022-09-06T05:05:40;96487.97;;;13.49;100.00
41222;BME280;26952;42.884;23.918;2022-09-06T05:08:05;96485.78;;;13.53;100.00
41222;BME280;26952;42.884;23.918;2022-09-06T05:10:31;96493.31;;;13.72;100.00
41222;BME280;26952;42.884;23.918;2022-09-06T05:12:56;96449.03;;;13.56;100.00
41222;BME280;26952;42.884;23.918;2022-09-06T05:15:22;96482.56;;;13.88;100.00
41222;BME280;26952;42.884;23.918;2022-09-06T05:17:48;96497.13;;;14.00;100.00
41222;BME280;26952;42.884;23.918;2022-09-06T05:20:14;96491.44;;;14.03;100.00
41222;BME280;26952;42.884;23.918;2022-09-06T05:22:39;96463.69;;;13.98;100.00
41222;BME280;26952;42.884;23.918;2022-09-06T05:25:06;96496.72;;;14.34;100.00
41222;BME280;26952;42.884;23.918;2022-09-06T05:27:32;96506.38;;;14.49;100.00
41222;BME280;26952;42.884;23.918;2022-09-06T05:29:57;96449.97;;;14.31;100.00
41222;BME280;26952;42.884;23.918;2022-09-06T05:32:23;96474.44;;;14.64;100.00
41222;BME280;26952;42.884;23.918;2022-09-06T05:34:48;96499.00;;;14.88;100.00
41222;BME280;26952;42.884;23.918;2022-09-06T05:37:13;96456.91;;;14.69;100.00
41222;BME280;26952;42.884;23.918;2022-09-06T05:39:39;96485.03;;;15.01;100.00
41222;BME280;26952;42.884;23.918;2022-09-06T05:42:04;96488.69;;;15.14;100.00
41222;BME280;26952;42.884;23.918;2022-09-06T05:44:37;96501.84;;;15.30;100.00
41222;BME280;26952;42.884;23.918;2022-09-06T05:47:03;96481.06;;;15.26;100.00
41222;BME280;26952;42.884;23.918;2022-09-06T05:49:29;96487.44;;;15.40;100.00
41222;BME280;26952;42.884;23.918;2022-09-06T05:51:55;96503.88;;;15.58;100.00
41222;BME280;26952;42.884;23.918;2022-09-06T05:54:21;96499.41;;;15.65;100.00
41222;BME280;26952;42.884;23.918;2022-09-06T05:56:47;96480.72;;;15.65;100.00
41222;BME280;26952;42.884;23.918;2022-09-06T05:59:12;96484.97;;;15.74;100.00
41222;BME280;26952;42.884;23.918;2022-09-06T06:01:49;96485.09;;;15.87;100.00
41222;BME280;26952;42.884;23.918;2022-09-06T06:04:15;96484.47;;;16.06;100.00
41222;BME280;26952;42.884;23.918;2022-09-06T06:06:43;96499.66;;;16.26;100.00
41222;BME280;26952;42.884;23.918;2022-09-06T06:09:08;96422.59;;;16.02;100.00
41222;BME280;26952;42.884;23.918;2022-09-06T06:11:34;96478.84;;;16.64;100.00
41222;BME280;26952;42.884;23.918;2022-09-06T06:14:01;96474.88;;;16.88;100.00
41222;BME280;26952;42.884;23.918;2022-09-06T06:16:26;96484.31;;;17.18;100.00
41222;BME280;26952;42.884;23.918;2022-09-06T06:18:53;96489.94;;;17.63;100.00
41222;BME280;26952;42.884;23.918;2022-09-06T06:21:23;96473.97;;;18.09;100.00
41222;BME280;26952;42.884;23.918;2022-09-06T06:23:57;96484.34;;;18.64;100.00
41222;BME280;26952;42.884;23.918;2022-09-06T06:26:23;96485.78;;;18.93;100.00
41222;BME280;26952;42.884;23.918;2022-09-06T06:28:49;96482.19;;;19.45;100.00
41222;BME280;26952;42.884;23.918;2022-09-06T06:31:14;96482.06;;;19.71;100.00
41222;BME280;26952;42.884;23.918;2022-09-06T06:33:40;96460.31;;;19.79;100.00
41222;BME280;26952;42.884;23.918;2022-09-06T06:36:18;96485.47;;;20.28;100.00
41222;BME280;26952;42.884;23.918;2022-09-06T06:38:46;96477.50;;;20.71;100.00
41222;BME280;26952;42.884;23.918;2022-09-06T06:41:14;96465.50;;;20.92;100.00
41222;BME280;26952;42.884;23.918;2022-09-06T06:43:40;96474.88;;;21.14;100.00
41222;BME280;26952;42.884;23.918;2022-09-06T06:46:08;96461.41;;;21.32;99.23
41222;BME280;26952;42.884;23.918;2022-09-06T06:48:35;96465.75;;;21.51;100.00
41222;BME280;26952;42.884;23.918;2022-09-06T06:51:00;96478.94;;;21.77;89.08
41222;BME280;26952;42.884;23.918;2022-09-06T06:53:26;96480.56;;;21.96;89.14
41222;BME280;26952;42.884;23.918;2022-09-06T06:55:51;96484.69;;;22.10;87.91
41222;BME280;26952;42.884;23.918;2022-09-06T06:58:17;96476.56;;;22.28;90.24
41222;BME280;26952;42.884;23.918;2022-09-06T07:00:44;96484.44;;;22.59;92.29
41222;BME280;26952;42.884;23.918;2022-09-06T07:03:10;96470.63;;;22.49;85.77
41222;BME280;26952;42.884;23.918;2022-09-06T07:05:36;96470.22;;;22.64;78.71
41222;BME280;26952;42.884;23.918;2022-09-06T07:08:03;96461.91;;;22.88;84.24
41222;BME280;26952;42.884;23.918;2022-09-06T07:10:29;96479.53;;;23.25;78.70
41222;BME280;26952;42.884;23.918;2022-09-06T07:12:54;96473.31;;;23.37;79.58
41222;BME280;26952;42.884;23.918;2022-09-06T07:15:20;96483.31;;;23.13;74.53
41222;BME280;26952;42.884;23.918;2022-09-06T07:17:45;96477.91;;;23.01;69.68
41222;BME280;26952;42.884;23.918;2022-09-06T07:20:11;96479.16;;;22.99;73.07
41222;BME280;26952;42.884;23.918;2022-09-06T07:22:37;96482.22;;;22.91;65.90
41222;BME280;26952;42.884;23.918;2022-09-06T07:25:04;96469.97;;;22.54;65.84
41222;BME280;26952;42.884;23.918;2022-09-06T07:27:29;96457.78;;;22.63;68.13
41222;BME280;26952;42.884;23.918;2022-09-06T07:29:55;96489.88;;;23.05;72.11
41222;BME280;26952;42.884;23.918;2022-09-06T07:32:20;96474.72;;;22.93;63.97
41222;BME280;26952;42.884;23.918;2022-09-06T07:34:45;96485.41;;;23.22;65.31
41222;BME280;26952;42.884;23.918;2022-09-06T07:37:11;96470.09;;;23.63;71.02
41222;BME280;26952;42.884;23.918;2022-09-06T07:39:36;96476.84;;;24.00;66.33
41222;BME280;26952;42.884;23.918;2022-09-06T07:42:03;96480.88;;;24.42;66.15
41222;BME280;26952;42.884;23.918;2022-09-06T07:44:28;96479.81;;;24.71;75.45
41222;BME280;26952;42.884;23.918;2022-09-06T07:46:54;96479.81;;;25.04;60.49
41222;BME280;26952;42.884;23.918;2022-09-06T07:49:20;96474.91;;;25.01;62.54
41222;BME280;26952;42.884;23.918;2022-09-06T07:51:46;96469.47;;;25.01;59.20
41222;BME280;26952;42.884;23.918;2022-09-06T07:54:12;96464.94;;;24.90;60.03
41222;BME280;26952;42.884;23.918;2022-09-06T07:56:38;96480.47;;;24.78;61.80
41222;BME280;26952;42.884;23.918;2022-09-06T07:59:03;96477.59;;;24.40;60.92
41222;BME280;26952;42.884;23.918;2022-09-06T08:01:36;96457.81;;;25.01;61.46
41222;BME280;26952;42.884;23.918;2022-09-06T08:04:05;96486.69;;;25.28;61.04
41222;BME280;26952;42.884;23.918;2022-09-06T08:06:36;96479.75;;;24.99;64.18
41222;BME280;26952;42.884;23.918;2022-09-06T08:09:03;96474.16;;;24.73;65.47
41222;BME280;26952;42.884;23.918;2022-09-06T08:11:32;96473.91;;;24.74;62.78
41222;BME280;26952;42.884;23.918;2022-09-06T08:13:59;96468.81;;;24.78;60.51
41222;BME280;26952;42.884;23.918;2022-09-06T08:16:26;96476.69;;;24.96;66.75
41222;BME280;26952;42.884;23.918;2022-09-06T08:18:54;96469.88;;;25.64;65.24
41222;BME280;26952;42.884;23.918;2022-09-06T08:21:22;96458.03;;;25.92;62.46
41222;BME280;26952;42.884;23.918;2022-09-06T08:23:49;96460.84;;;26.24;59.15
41222;BME280;26952;42.884;23.918;2022-09-06T08:26:16;96471.03;;;26.38;59.60
41222;BME280;26952;42.884;23.918;2022-09-06T08:28:42;96474.38;;;26.45;60.61
41222;BME280;26952;42.884;23.918;2022-09-06T08:31:11;96469.31;;;26.06;56.42
41222;BME280;26952;42.884;23.918;2022-09-06T08:33:38;96460.47;;;25.72;56.26
41222;BME280;26952;42.884;23.918;2022-09-06T08:36:04;96462.78;;;25.25;64.91
41222;BME280;26952;42.884;23.918;2022-09-06T08:38:30;96465.94;;;25.55;53.03
41222;BME280;26952;42.884;23.918;2022-09-06T08:41:10;96459.22;;;25.58;55.78
41222;BME280;26952;42.884;23.918;2022-09-06T08:43:36;96467.19;;;24.93;55.27
41222;BME280;26952;42.884;23.918;2022-09-06T08:46:02;96465.09;;;25.17;63.61
41222;BME280;26952;42.884;23.918;2022-09-06T08:48:31;96472.63;;;25.31;51.99
41222;BME280;26952;42.884;23.918;2022-09-06T08:53:53;96456.16;;;25.98;52.60
41222;BME280;26952;42.884;23.918;2022-09-06T08:56:33;96443.25;;;26.31;51.13
41222;BME280;26952;42.884;23.918;2022-09-06T08:59:10;96451.53;;;26.68;51.62
41222;BME280;26952;42.884;23.918;2022-09-06T09:04:29;96440.09;;;27.39;49.13
41222;BME280;26952;42.884;23.918;2022-09-06T09:09:39;96445.97;;;27.26;43.27
41222;BME280;26952;42.884;23.918;2022-09-06T09:12:05;96444.03;;;26.85;50.12
41222;BME280;26952;42.884;23.918;2022-09-06T09:14:34;96438.69;;;26.95;50.80
41222;BME280;26952;42.884;23.918;2022-09-06T09:17:31;96438.69;;;26.95;46.76
41222;BME280;26952;42.884;23.918;2022-09-06T09:19:56;96415.84;;;26.91;46.19
41222;BME280;26952;42.884;23.918;2022-09-06T09:22:23;96423.28;;;27.05;45.64
41222;BME280;26952;42.884;23.918;2022-09-06T09:24:50;96409.34;;;27.39;51.53
41222;BME280;26952;42.884;23.918;2022-09-06T09:27:24;96411.91;;;27.55;44.51
41222;BME280;26952;42.884;23.918;2022-09-06T09:32:32;96422.88;;;27.85;48.71
41222;BME280;26952;42.884;23.918;2022-09-06T09:37:46;96406.44;;;27.08;44.12
41222;BME280;26952;42.884;23.918;2022-09-06T09:40:16;96412.38;;;27.00;42.43
41222;BME280;26952;42.884;23.918;2022-09-06T09:42:53;96419.28;;;26.50;43.11
41222;BME280;26952;42.884;23.918;2022-09-06T09:47:45;96419.91;;;27.30;46.24
41222;BME280;26952;42.884;23.918;2022-09-06T09:50:31;96412.84;;;27.29;46.19
41222;BME280;26952;42.884;23.918;2022-09-06T09:53:09;96400.41;;;26.65;43.73
41222;BME280;26952;42.884;23.918;2022-09-06T09:55:35;96407.03;;;25.72;45.88
41222;BME280;26952;42.884;23.918;2022-09-06T09:58:01;96396.72;;;26.18;54.40
41222;BME280;26952;42.884;23.918;2022-09-06T10:00:45;96410.47;;;26.11;45.83
41222;BME280;26952;42.884;23.918;2022-09-06T10:03:16;96400.25;;;26.50;45.84
41222;BME280;26952;42.884;23.918;2022-09-06T10:05:54;96394.53;;;26.78;44.14
41222;BME280;26952;42.884;23.918;2022-09-06T10:08:23;96384.25;;;26.85;43.47
41222;BME280;26952;42.884;23.918;2022-09-06T10:10:50;96386.19;;;25.51;45.71
41222;BME280;26952;42.884;23.918;2022-09-06T10:13:24;96365.78;;;25.97;47.41
41222;BME280;26952;42.884;23.918;2022-09-06T10:15:58;96402.09;;;26.71;48.57
41222;BME280;26952;42.884;23.918;2022-09-06T10:18:39;96379.94;;;26.89;44.80
41222;BME280;26952;42.884;23.918;2022-09-06T10:21:09;96388.44;;;27.02;43.40
41222;BME280;26952;42.884;23.918;2022-09-06T10:28:40;96360.28;;;26.77;44.42
41222;BME280;26952;42.884;23.918;2022-09-06T10:36:36;96368.97;;;26.74;47.08
41222;BME280;26952;42.884;23.918;2022-09-06T10:42:31;96376.53;;;27.08;40.27
41222;BME280;26952;42.884;23.918;2022-09-06T10:47:55;96366.47;;;27.04;39.83
41222;BME280;26952;42.884;23.918;2022-09-06T10:50:37;96362.41;;;27.68;44.05
41222;BME280;26952;42.884;23.918;2022-09-06T10:53:33;96363.09;;;28.10;40.62
41222;BME280;26952;42.884;23.918;2022-09-06T10:56:44;96357.38;;;27.35;44.72
41222;BME280;26952;42.884;23.918;2022-09-06T11:01:41;96366.19;;;25.19;48.92
41222;BME280;26952;42.884;23.918;2022-09-06T11:04:13;96347.03;;;24.33;51.58
41222;BME280;26952;42.884;23.918;2022-09-06T11:06:50;96344.22;;;24.28;51.28
41222;BME280;26952;42.884;23.918;2022-09-06T11:09:40;96349.16;;;25.02;52.75
41222;BME280;26952;42.884;23.918;2022-09-06T11:12:16;96338.25;;;25.35;47.47
41222;BME280;26952;42.884;23.918;2022-09-06T11:14:42;96359.41;;;24.62;48.26
41222;BME280;26952;42.884;23.918;2022-09-06T11:17:27;96341.50;;;24.61;49.86
41222;BME280;26952;42.884;23.918;2022-09-06T11:20:09;96346.56;;;24.91;48.20
41222;BME280;26952;42.884;23.918;2022-09-06T11:28:34;96304.91;;;24.75;45.84
41222;BME280;26952;42.884;23.918;2022-09-06T11:31:01;96342.56;;;24.93;48.42
41222;BME280;26952;42.884;23.918;2022-09-06T11:33:30;96320.66;;;24.61;53.77
41222;BME280;26952;42.884;23.918;2022-09-06T11:36:28;96350.94;;;25.13;49.18
41222;BME280;26952;42.884;23.918;2022-09-06T11:39:00;96334.94;;;25.12;50.33
41222;BME280;26952;42.884;23.918;2022-09-06T11:41:31;96334.44;;;24.93;52.77
41222;BME280;26952;42.884;23.918;2022-09-06T11:43:58;96341.31;;;25.22;54.54
41222;BME280;26952;42.884;23.918;2022-09-06T11:49:26;96333.88;;;26.36;45.30
41222;BME280;26952;42.884;23.918;2022-09-06T11:51:45;96341.47;;;25.80;46.29
41222;BME280;26952;42.884;23.918;2022-09-06T12:02:33;96343.06;;;24.24;55.27
41222;BME280;26952;42.884;23.918;2022-09-06T12:07:30;96328.38;;;24.53;53.49
41222;BME280;26952;42.884;23.918;2022-09-06T12:09:56;96327.94;;;24.61;54.13
41222;BME280;26952;42.884;23.918;2022-09-06T12:12:47;96308.66;;;24.74;55.22
41222;BME280;26952;42.884;23.918;2022-09-06T12:15:29;96330.63;;;24.94;58.00
41222;BME280;26952;42.884;23.918;2022-09-06T12:17:56;96316.94;;;24.84;54.07
41222;BME280;26952;42.884;23.918;2022-09-06T12:26:00;96319.56;;;25.60;48.88
41222;BME280;26952;42.884;23.918;2022-09-06T12:28:30;96310.53;;;25.81;47.13
41222;BME280;26952;42.884;23.918;2022-09-06T12:30:58;96302.16;;;26.10;46.79
41222;BME280;26952;42.884;23.918;2022-09-06T12:33:26;96307.13;;;26.18;47.55
41222;BME280;26952;42.884;23.918;2022-09-06T12:36:21;96303.69;;;26.01;51.27
41222;BME280;26952;42.884;23.918;2022-09-06T12:41:21;96295.13;;;25.60;50.65
41222;BME280;26952;42.884;23.918;2022-09-06T12:43:47;96290.34;;;25.24;50.42
41222;BME280;26952;42.884;23.918;2022-09-06T12:46:13;96295.28;;;24.84;52.66
41222;BME280;26952;42.884;23.918;2022-09-06T12:48:38;96297.91;;;24.79;50.54
41222;BME280;26952;42.884;23.918;2022-09-06T12:51:10;96301.22;;;24.48;51.55
41222;BME280;26952;42.884;23.918;2022-09-06T12:53:58;96302.56;;;24.29;52.00
41222;BME280;26952;42.884;23.918;2022-09-06T12:56:24;96311.34;;;24.36;53.74
41222;BME280;26952;42.884;23.918;2022-09-06T12:58:51;96294.19;;;24.30;55.45
41222;BME280;26952;42.884;23.918;2022-09-06T13:01:27;96309.13;;;24.33;54.84
41222;BME280;26952;42.884;23.918;2022-09-06T13:04:07;96307.31;;;24.38;56.72
41222;BME280;26952;42.884;23.918;2022-09-06T13:06:40;96297.81;;;24.36;58.26
41222;BME280;26952;42.884;23.918;2022-09-06T13:09:13;96296.31;;;24.45;65.13
41222;BME280;26952;42.884;23.918;2022-09-06T13:11:43;96310.75;;;24.34;67.00
41222;BME280;26952;42.884;23.918;2022-09-06T13:14:36;96309.03;;;24.28;67.77
41222;BME280;26952;42.884;23.918;2022-09-06T13:17:02;96298.63;;;24.20;70.09
41222;BME280;26952;42.884;23.918;2022-09-06T13:19:29;96312.09;;;24.31;75.25
41222;BME280;26952;42.884;23.918;2022-09-06T13:21:55;96293.38;;;24.13;77.67
41222;BME280;26952;42.884;23.918;2022-09-06T13:30:04;96295.34;;;24.18;77.07
41222;BME280;26952;42.884;23.918;2022-09-06T13:32:30;96304.63;;;24.22;77.32
41222;BME280;26952;42.884;23.918;2022-09-06T13:34:58;96271.91;;;24.07;76.00
41222;BME280;26952;42.884;23.918;2022-09-06T13:37:29;96267.00;;;24.04;76.96
41222;BME280;26952;42.884;23.918;2022-09-06T13:39:56;96281.72;;;24.13;78.39
41222;BME280;26952;42.884;23.918;2022-09-06T13:42:36;96289.84;;;24.13;82.91
41222;BME280;26952;42.884;23.918;2022-09-06T13:45:26;96298.31;;;24.16;81.35
41222;BME280;26952;42.884;23.918;2022-09-06T13:47:52;96293.38;;;24.13;82.60
41222;BME280;26952;42.884;23.918;2022-09-06T13:50:18;96294.53;;;24.17;82.61
41222;BME280;26952;42.884;23.918;2022-09-06T13:52:44;96295.00;;;24.14;76.63
41222;BME280;26952;42.884;23.918;2022-09-06T13:55:13;96286.47;;;24.06;85.26
41222;BME280;26952;42.884;23.918;2022-09-06T13:57:39;96280.22;;;23.89;83.49
41222;BME280;26952;42.884;23.918;2022-09-06T14:00:05;96287.84;;;23.92;86.32
41222;BME280;26952;42.884;23.918;2022-09-06T14:02:32;96297.13;;;23.96;92.93
41222;BME280;26952;42.884;23.918;2022-09-06T14:04:57;96283.91;;;23.83;94.31
41222;BME280;26952;42.884;23.918;2022-09-06T14:07:22;96290.94;;;23.67;97.17
41222;BME280;26952;42.884;23.918;2022-09-06T14:09:48;96263.78;;;23.46;95.69
41222;BME280;26952;42.884;23.918;2022-09-06T14:12:15;96296.00;;;23.64;95.63
41222;BME280;26952;42.884;23.918;2022-09-06T14:14:40;96294.28;;;23.58;95.63
41222;BME280;26952;42.884;23.918;2022-09-06T14:17:06;96294.13;;;23.36;93.65
41222;BME280;26952;42.884;23.918;2022-09-06T14:19:31;96279.13;;;23.28;99.13
41222;BME280;26952;42.884;23.918;2022-09-06T14:21:56;96283.78;;;23.33;97.08
41222;BME280;26952;42.884;23.918;2022-09-06T14:24:22;96302.38;;;23.29;96.52
41222;BME280;26952;42.884;23.918;2022-09-06T14:26:47;96287.59;;;23.20;98.07
41222;BME280;26952;42.884;23.918;2022-09-06T14:29:13;96296.03;;;23.36;94.88
41222;BME280;26952;42.884;23.918;2022-09-06T14:31:39;96274.41;;;23.36;93.13
41222;BME280;26952;42.884;23.918;2022-09-06T14:34:04;96294.91;;;23.48;99.02